createdAt,value
2019-05-09T00:00:33.381Z,97135.95
2019-05-09T00:03:03.538Z,97120.84
2019-05-09T00:05:33.480Z,97128.37
2019-05-09T00:08:03.527Z,97127.21
2019-05-09T00:10:39.546Z,97120.13
2019-05-09T00:13:03.340Z,97117.55
2019-05-09T00:15:33.176Z,97119.36
2019-05-09T00:18:00.786Z,97109.52
2019-05-09T00:20:37.393Z,97113.84
2019-05-09T00:23:05.496Z,97114.24
2019-05-09T00:25:34.000Z,97112.02
2019-05-09T00:28:04.263Z,97112.73
2019-05-09T00:30:51.513Z,97112.73
2019-05-09T00:33:24.887Z,97112.59
2019-05-09T00:35:53.666Z,97121.95
2019-05-09T00:38:23.963Z,97108.27
2019-05-09T00:40:58.454Z,97110.59
2019-05-09T00:43:23.765Z,97108.58
2019-05-09T00:46:14.162Z,97105.25
2019-05-09T00:49:13.961Z,97113.53
2019-05-09T00:51:43.720Z,97103.86
2019-05-09T00:54:13.507Z,97106.84
2019-05-09T00:56:40.827Z,97105.25
2019-05-09T00:59:08.356Z,97097.48
2019-05-09T01:01:37.020Z,97099.68
2019-05-09T01:04:04.598Z,97099.45
2019-05-09T01:06:33.835Z,97101.02
2019-05-09T01:09:03.626Z,97101.81
2019-05-09T01:11:33.312Z,97101.09
2019-05-09T01:14:03.664Z,97096.55
2019-05-09T01:16:33.519Z,97099.91
2019-05-09T01:19:03.979Z,97098.11
2019-05-09T01:21:33.305Z,97097.00
2019-05-09T01:24:03.366Z,97088.76
2019-05-09T01:26:33.326Z,97097.88
2019-05-09T01:29:01.535Z,97100.08
2019-05-09T01:31:29.262Z,97102.75
2019-05-09T01:34:06.015Z,97090.72
2019-05-09T01:36:54.030Z,97093.16
2019-05-09T01:39:24.204Z,97092.68
2019-05-09T01:41:53.174Z,97088.67
2019-05-09T01:44:20.919Z,97101.23
2019-05-09T01:46:48.531Z,97098.88
2019-05-09T01:49:16.313Z,97094.24
2019-05-09T01:51:53.696Z,97096.69
2019-05-09T01:54:43.566Z,97093.30
2019-05-09T01:57:13.688Z,97093.48
2019-05-09T01:59:44.371Z,97095.98
2019-05-09T02:02:14.265Z,97091.97
2019-05-09T02:04:43.948Z,97087.73
2019-05-09T02:07:12.774Z,97088.89
2019-05-09T02:09:40.148Z,97092.36
2019-05-09T02:12:07.249Z,97087.95
2019-05-09T02:14:43.526Z,97086.53
2019-05-09T02:17:28.867Z,97088.75
2019-05-09T02:19:55.928Z,97097.39
2019-05-09T02:22:34.580Z,97097.84
2019-05-09T02:25:04.257Z,97105.09
2019-05-09T02:27:33.249Z,97102.02
2019-05-09T02:30:00.655Z,97098.63
2019-05-09T02:32:27.870Z,97097.92
2019-05-09T02:34:56.828Z,97088.56
2019-05-09T02:37:28.637Z,97091.72
2019-05-09T02:39:59.192Z,97085.36
2019-05-09T02:42:28.073Z,97078.82
2019-05-09T02:44:59.260Z,97084.65
2019-05-09T02:47:28.699Z,97084.16
2019-05-09T02:49:58.732Z,97068.89
2019-05-09T02:52:28.463Z,97066.65
2019-05-09T02:54:58.245Z,97071.42
2019-05-09T02:57:29.071Z,97079.44
2019-05-09T03:00:22.188Z,97077.88
2019-05-09T03:03:11.116Z,97069.11
2019-05-09T03:05:39.697Z,97071.79
2019-05-09T03:08:09.732Z,97075.57
2019-05-09T03:10:38.110Z,97067.95
2019-05-09T03:13:09.013Z,97080.51
2019-05-09T03:15:39.428Z,97072.98
2019-05-09T03:18:09.396Z,97071.16
2019-05-09T03:20:48.964Z,97079.00
2019-05-09T03:23:19.195Z,97080.33
2019-05-09T03:25:48.411Z,97080.82
2019-05-09T03:28:52.680Z,97083.88
2019-05-09T03:31:21.246Z,97074.30
2019-05-09T03:33:50.173Z,97077.83
2019-05-09T03:36:18.276Z,97071.23
2019-05-09T03:38:47.467Z,97074.20
2019-05-09T03:41:14.489Z,97072.88
2019-05-09T03:43:41.554Z,97070.20
2019-05-09T03:46:18.133Z,97060.45
2019-05-09T03:48:50.217Z,97067.14
2019-05-09T03:51:19.612Z,97059.92
2019-05-09T03:53:48.446Z,97062.33
2019-05-09T03:56:20.565Z,97060.54
2019-05-09T03:58:50.260Z,97063.52
2019-05-09T04:01:17.756Z,97061.88
2019-05-09T04:03:48.147Z,97064.06
2019-05-09T04:06:18.418Z,97066.34
2019-05-09T04:08:48.207Z,97054.01
2019-05-09T04:11:18.546Z,97045.77
2019-05-09T04:14:01.243Z,97045.91
2019-05-09T04:16:29.818Z,97046.30
2019-05-09T04:18:58.388Z,97058.50
2019-05-09T04:21:27.800Z,97060.38
2019-05-09T04:23:54.480Z,97061.17
2019-05-09T04:26:32.432Z,97064.30
2019-05-09T04:29:01.424Z,97063.12
2019-05-09T04:31:29.766Z,97054.62
2019-05-09T04:33:59.231Z,97054.58
2019-05-09T04:36:40.269Z,97054.32
2019-05-09T04:39:12.587Z,97055.42
2019-05-09T04:41:40.931Z,97057.25
2019-05-09T04:44:16.678Z,97055.12
2019-05-09T04:46:40.993Z,97054.01
2019-05-09T04:49:09.934Z,97052.98
2019-05-09T04:51:39.242Z,97047.33
2019-05-09T04:54:07.299Z,97060.06
2019-05-09T04:56:39.519Z,97050.95
2019-05-09T04:59:07.497Z,97046.26
2019-05-09T05:01:49.243Z,97042.25
2019-05-09T05:04:18.077Z,97032.94
2019-05-09T05:06:47.720Z,97038.11
2019-05-09T05:09:14.592Z,97045.98
2019-05-09T05:11:42.054Z,97040.47
2019-05-09T05:14:20.522Z,97040.33
2019-05-09T05:16:54.098Z,97036.71
2019-05-09T05:19:21.906Z,97035.92
2019-05-09T05:21:49.590Z,97040.86
2019-05-09T05:24:29.246Z,97044.73
2019-05-09T05:26:58.021Z,97047.40
2019-05-09T05:29:28.104Z,97039.92
2019-05-09T05:31:58.555Z,97045.58
2019-05-09T05:34:31.954Z,97042.59
2019-05-09T05:36:59.922Z,97038.98
2019-05-09T05:39:28.298Z,97038.41
2019-05-09T05:41:57.688Z,97037.78
2019-05-09T05:44:25.556Z,97030.41
2019-05-09T05:47:12.380Z,97031.66
2019-05-09T05:49:40.054Z,97031.89
2019-05-09T05:52:08.033Z,97033.31
2019-05-09T05:54:37.665Z,97036.75
2019-05-09T05:57:04.388Z,97039.20
2019-05-09T05:59:31.461Z,97027.58
2019-05-09T06:01:59.451Z,97026.87
2019-05-09T06:04:27.559Z,97027.72
2019-05-09T06:06:54.834Z,97031.28
2019-05-09T06:09:22.098Z,97020.81
2019-05-09T06:11:49.472Z,97023.58
2019-05-09T06:14:18.427Z,97024.74
2019-05-09T06:16:48.581Z,97021.61
2019-05-09T06:19:17.930Z,97018.46
2019-05-09T06:21:48.572Z,97017.12
2019-05-09T06:24:17.534Z,97024.51
2019-05-09T06:26:44.889Z,97020.59
2019-05-09T06:29:12.147Z,97033.73
2019-05-09T06:31:39.420Z,97029.63
2019-05-09T06:34:08.349Z,97026.16
2019-05-09T06:36:38.902Z,97030.26
2019-05-09T06:39:08.408Z,97032.30
2019-05-09T06:41:37.785Z,97029.94
2019-05-09T06:44:19.699Z,97028.52
2019-05-09T06:47:10.075Z,97034.18
2019-05-09T06:49:39.542Z,97032.70
2019-05-09T06:52:08.715Z,97033.63
2019-05-09T06:54:35.857Z,97033.39
2019-05-09T06:57:03.009Z,97032.45
2019-05-09T06:59:31.146Z,97031.16
2019-05-09T07:02:04.366Z,97031.39
2019-05-09T07:04:38.063Z,97031.28
2019-05-09T07:07:09.655Z,97024.98
2019-05-09T07:09:42.561Z,97024.44
2019-05-09T07:12:09.787Z,97024.02
2019-05-09T07:14:40.994Z,97016.31
2019-05-09T07:17:08.177Z,97019.31
2019-05-09T07:19:34.823Z,97020.87
2019-05-09T07:22:28.216Z,97015.99
2019-05-09T07:25:10.756Z,97009.37
2019-05-09T07:27:38.851Z,97008.75
2019-05-09T07:30:12.733Z,97003.72
2019-05-09T07:32:49.562Z,96995.41
2019-05-09T07:35:18.609Z,96994.17
2019-05-09T07:37:45.624Z,96998.66
2019-05-09T07:40:13.004Z,96991.97
2019-05-09T07:42:40.408Z,96982.82
2019-05-09T07:45:08.947Z,96984.80
2019-05-09T07:47:38.556Z,96987.67
2019-05-09T07:50:08.227Z,96985.63
2019-05-09T07:52:34.847Z,96984.84
2019-05-09T07:55:01.891Z,96986.97
2019-05-09T07:57:28.974Z,96979.23
2019-05-09T07:59:58.376Z,96982.19
2019-05-09T08:02:25.307Z,96975.02
2019-05-09T08:04:52.385Z,96979.30
2019-05-09T08:07:19.434Z,96970.98
2019-05-09T08:09:47.559Z,96983.59
2019-05-09T08:12:17.751Z,96985.09
2019-05-09T08:14:44.070Z,96998.25
2019-05-09T08:17:12.387Z,96998.73
2019-05-09T08:19:40.289Z,97008.13
2019-05-09T08:22:08.144Z,97005.06
2019-05-09T08:24:38.043Z,97006.21
2019-05-09T08:27:05.509Z,97009.81
2019-05-09T08:29:32.565Z,97022.27
2019-05-09T08:32:00.097Z,97020.33
2019-05-09T08:34:28.450Z,97026.86
2019-05-09T08:36:58.068Z,97032.30
2019-05-09T08:39:27.507Z,97023.73
2019-05-09T08:41:54.466Z,97022.39
2019-05-09T08:44:21.960Z,97016.16
2019-05-09T08:46:48.990Z,97010.58
2019-05-09T08:49:18.239Z,97023.41
2019-05-09T08:52:12.685Z,97026.73
2019-05-09T08:54:40.883Z,97025.00
2019-05-09T08:57:07.924Z,97030.52
2019-05-09T08:59:34.975Z,97029.27
2019-05-09T09:02:15.320Z,97024.94
2019-05-09T09:04:32.052Z,97028.73
2019-05-09T09:06:59.385Z,97032.03
2019-05-09T09:09:28.599Z,97031.81
2019-05-09T09:11:58.301Z,97043.34
2019-05-09T09:14:27.890Z,97039.64
2019-05-09T09:16:57.509Z,97032.47
2019-05-09T09:19:24.562Z,97043.48
2019-05-09T09:21:51.957Z,97025.66
2019-05-09T09:24:18.980Z,97021.71
2019-05-09T09:26:48.069Z,97018.88
2019-05-09T09:29:15.032Z,97015.41
2019-05-09T09:31:42.406Z,97009.88
2019-05-09T09:34:09.638Z,97007.42
2019-05-09T09:36:38.992Z,96935.63
2019-05-09T09:39:07.980Z,97003.53
2019-05-09T09:41:38.315Z,97004.99
2019-05-09T09:44:03.942Z,96999.08
2019-05-09T09:46:31.330Z,96996.93
2019-05-09T09:48:58.728Z,96995.27
2019-05-09T09:51:27.601Z,96987.39
2019-05-09T09:53:55.113Z,96984.81
2019-05-09T09:56:22.666Z,96978.41
2019-05-09T09:59:11.098Z,96982.03
2019-05-09T10:01:41.031Z,96980.80
2019-05-09T10:04:19.716Z,96972.56
2019-05-09T10:06:41.207Z,96962.29
2019-05-09T10:09:09.434Z,96963.84
2019-05-09T10:11:38.042Z,96969.53
2019-05-09T10:14:07.876Z,96960.01
2019-05-09T10:16:43.167Z,96957.69
2019-05-09T10:19:18.621Z,96962.76
2019-05-09T10:21:49.161Z,96953.02
2019-05-09T10:24:17.521Z,96951.84
2019-05-09T10:27:03.373Z,96941.86
2019-05-09T10:29:30.388Z,96936.79
2019-05-09T10:31:58.129Z,96949.53
2019-05-09T10:34:28.648Z,96935.20
2019-05-09T10:36:55.482Z,96938.55
2019-05-09T10:39:22.857Z,96935.81
2019-05-09T10:41:51.212Z,96925.66
2019-05-09T10:44:25.436Z,96921.80
2019-05-09T10:47:19.429Z,96920.47
2019-05-09T10:49:48.768Z,96905.72
2019-05-09T10:52:18.058Z,96918.48
2019-05-09T10:54:44.651Z,96914.47
2019-05-09T10:57:11.976Z,96935.08
2019-05-09T10:59:39.036Z,96912.04
2019-05-09T11:02:09.541Z,96904.33
2019-05-09T11:04:37.921Z,96914.95
2019-05-09T11:07:07.879Z,96909.38
2019-05-09T11:09:34.401Z,96915.42
2019-05-09T11:12:02.537Z,96904.67
2019-05-09T11:14:36.910Z,96895.47
2019-05-09T11:17:07.967Z,96909.12
2019-05-09T11:19:28.894Z,96910.05
2019-05-09T11:21:58.604Z,96908.00
2019-05-09T11:24:40.532Z,96924.36
2019-05-09T11:26:54.475Z,96919.44
2019-05-09T11:29:21.722Z,96924.13
2019-05-09T11:31:48.808Z,96931.41
2019-05-09T11:34:15.813Z,96939.18
2019-05-09T11:36:42.806Z,96932.09
2019-05-09T11:41:02.125Z,96938.32
2019-05-09T11:41:38.788Z,96937.48
2019-05-09T11:44:08.263Z,96939.50
2019-05-09T11:46:37.989Z,96945.23
2019-05-09T11:49:04.460Z,96945.62
2019-05-09T11:51:31.587Z,96942.86
2019-05-09T11:53:59.158Z,96942.13
2019-05-09T11:56:26.706Z,96946.34
2019-05-09T11:58:54.091Z,96953.61
2019-05-09T12:01:22.251Z,96953.81
2019-05-09T12:03:52.248Z,96960.45
2019-05-09T12:06:20.109Z,96962.12
2019-05-09T12:08:48.422Z,96959.54
2019-05-09T12:11:18.393Z,96954.03
2019-05-09T12:13:44.599Z,96953.56
2019-05-09T12:16:11.598Z,96954.58
2019-05-09T12:18:38.604Z,96950.88
2019-05-09T12:21:05.584Z,96946.80
2019-05-09T12:23:32.947Z,96950.94
2019-05-09T12:25:59.988Z,96950.19
2019-05-09T12:28:26.983Z,96953.94
2019-05-09T12:30:53.976Z,96951.41
2019-05-09T12:33:21.451Z,96946.22
2019-05-09T12:35:48.436Z,96953.34
2019-05-09T12:38:17.877Z,96937.05
2019-05-09T12:40:44.637Z,96936.44
2019-05-09T12:43:12.068Z,96934.11
2019-05-09T12:45:39.738Z,96937.77
2019-05-09T12:48:14.158Z,96935.89
2019-05-09T12:50:38.552Z,96938.39
2019-05-09T12:53:04.929Z,96945.20
2019-05-09T12:55:31.995Z,96951.16
2019-05-09T12:57:59.595Z,96948.95
2019-05-09T13:00:28.449Z,96952.13
2019-05-09T13:02:55.963Z,96953.27
2019-05-09T13:05:22.996Z,96948.64
2019-05-09T13:07:50.031Z,96953.30
2019-05-09T13:10:19.412Z,96951.67
2019-05-09T13:12:48.428Z,96956.59
2019-05-09T13:15:18.364Z,96956.34
2019-05-09T13:17:45.281Z,96959.72
2019-05-09T13:20:13.969Z,96959.28
2019-05-09T13:22:41.579Z,96964.63
2019-05-09T13:25:09.666Z,96967.06
2019-05-09T13:27:38.736Z,96970.09
2019-05-09T13:30:08.322Z,96972.31
2019-05-09T13:32:37.541Z,96972.16
2019-05-09T13:35:04.846Z,96980.45
2019-05-09T13:37:31.912Z,96977.52
2019-05-09T13:39:59.317Z,96983.82
2019-05-09T13:42:28.418Z,96986.39
2019-05-09T13:44:55.664Z,96988.39
2019-05-09T13:47:22.972Z,96985.07
2019-05-09T13:49:50.076Z,97002.70
2019-05-09T13:52:17.920Z,96999.81
2019-05-09T13:54:48.244Z,97001.79
2019-05-09T13:57:15.036Z,96993.61
2019-05-09T13:59:42.361Z,96992.27
2019-05-09T14:02:10.016Z,97001.63
2019-05-09T14:04:39.667Z,97010.69
2019-05-09T14:07:08.488Z,97000.60
2019-05-09T14:09:37.840Z,97001.97
2019-05-09T14:12:04.708Z,97001.74
2019-05-09T14:14:33.142Z,97001.79
2019-05-09T14:17:00.893Z,96996.47
2019-05-09T14:19:39.875Z,97002.20
2019-05-09T14:21:58.691Z,97001.59
2019-05-09T14:24:27.888Z,97000.28
2019-05-09T14:26:58.124Z,97008.83
2019-05-09T14:29:25.144Z,97005.75
2019-05-09T14:31:52.438Z,97006.11
2019-05-09T14:34:19.979Z,96999.73
2019-05-09T14:36:49.526Z,97001.62
2019-05-09T14:39:18.052Z,97007.17
2019-05-09T14:41:47.236Z,97014.52
2019-05-09T14:44:14.430Z,97019.41
2019-05-09T14:46:41.460Z,97015.61
2019-05-09T14:49:08.538Z,97021.73
2019-05-09T14:51:37.800Z,97019.98
2019-05-09T14:54:05.237Z,97035.20
2019-05-09T14:56:32.285Z,97029.59
2019-05-09T14:58:59.302Z,97043.61
2019-05-09T15:01:28.842Z,97042.39
2019-05-09T15:03:58.526Z,97058.37
2019-05-09T15:06:28.111Z,97054.30
2019-05-09T15:08:55.057Z,97063.41
2019-05-09T15:11:22.190Z,97062.33
2019-05-09T15:13:49.522Z,97061.73
2019-05-09T15:16:18.399Z,97077.48
2019-05-09T15:18:48.524Z,97075.13
2019-05-09T15:21:16.665Z,97070.88
2019-05-09T15:23:44.173Z,97089.31
2019-05-09T15:26:11.220Z,97080.80
2019-05-09T15:28:39.250Z,97081.00
2019-05-09T15:31:08.852Z,97086.80
2019-05-09T15:33:37.522Z,97089.31
2019-05-09T15:36:04.578Z,97085.94
2019-05-09T15:38:31.608Z,97089.86
2019-05-09T15:40:59.490Z,97089.00
2019-05-09T15:43:26.836Z,97095.25
2019-05-09T15:46:08.423Z,97100.31
2019-05-09T15:48:37.960Z,97095.56
2019-05-09T15:51:04.866Z,97101.37
2019-05-09T15:53:32.251Z,97106.69
2019-05-09T15:55:59.286Z,97099.20
2019-05-09T15:58:28.606Z,97105.11
2019-05-09T16:00:55.233Z,97109.61
2019-05-09T16:03:22.767Z,97110.75
2019-05-09T16:05:50.216Z,97101.36
2019-05-09T16:08:18.536Z,97110.58
2019-05-09T16:10:46.891Z,97117.70
2019-05-09T16:13:14.046Z,97124.20
2019-05-09T16:15:41.474Z,97118.45
2019-05-09T16:18:08.892Z,97130.52
2019-05-09T16:20:38.492Z,97136.55
2019-05-09T16:23:08.409Z,97141.91
2019-05-09T16:25:35.314Z,97142.52
2019-05-09T16:28:03.282Z,97146.73
2019-05-09T16:30:30.652Z,97147.98
2019-05-09T16:32:58.581Z,97154.61
2019-05-09T16:35:25.755Z,97157.00
2019-05-09T16:38:02.795Z,97156.01
2019-05-09T16:40:22.027Z,97163.38
2019-05-09T16:42:50.272Z,97163.57
2019-05-09T16:45:18.273Z,97169.70
2019-05-09T16:47:45.502Z,97170.66
2019-05-09T16:50:12.859Z,97174.60
2019-05-09T16:52:43.463Z,97177.41
2019-05-09T16:55:13.880Z,97176.14
2019-05-09T16:57:42.319Z,97178.05
2019-05-09T17:00:11.763Z,97189.31
2019-05-09T17:02:39.046Z,97189.66
2019-05-09T17:05:08.373Z,97195.73
2019-05-09T17:07:38.225Z,97202.34
2019-05-09T17:10:08.157Z,97208.09
2019-05-09T17:12:34.722Z,97199.86
2019-05-09T17:15:01.772Z,97210.03
2019-05-09T17:17:29.101Z,97209.40
2019-05-09T17:19:57.277Z,97213.80
2019-05-09T17:22:42.968Z,97217.64
2019-05-09T17:25:10.416Z,97218.66
2019-05-09T17:27:38.704Z,97233.46
2019-05-09T17:30:08.484Z,97229.50
2019-05-09T17:32:37.990Z,97236.43
2019-05-09T17:35:05.651Z,97240.64
2019-05-09T17:37:33.412Z,97251.13
2019-05-09T17:40:00.684Z,97255.02
2019-05-09T17:42:28.251Z,97258.81
2019-05-09T17:44:57.792Z,97259.67
2019-05-09T17:47:25.003Z,97266.45
2019-05-09T17:49:52.546Z,97268.81
2019-05-09T17:52:20.314Z,97269.43
2019-05-09T17:54:48.537Z,97272.41
2019-05-09T17:57:18.604Z,97277.67
2019-05-09T17:59:45.194Z,97282.88
2019-05-09T18:02:12.471Z,97281.28
2019-05-09T18:04:40.356Z,97291.55
2019-05-09T18:07:08.937Z,97289.09
2019-05-09T18:09:36.426Z,97294.94
2019-05-09T18:12:03.651Z,97289.73
2019-05-09T18:14:30.720Z,97306.44
2019-05-09T18:16:58.862Z,97296.36
2019-05-09T18:19:29.106Z,97308.11
2019-05-09T18:21:57.845Z,97312.31
2019-05-09T18:24:28.501Z,97321.91
2019-05-09T18:26:55.350Z,97324.59
2019-05-09T18:29:22.443Z,97330.18
2019-05-09T18:32:00.484Z,97284.50
2019-05-09T18:34:28.641Z,97328.84
2019-05-09T18:36:58.592Z,97326.10
2019-05-09T18:39:27.735Z,97340.98
2019-05-09T18:41:55.053Z,97347.59
2019-05-09T18:44:22.531Z,97352.95
2019-05-09T18:46:49.604Z,97358.08
2019-05-09T18:49:16.690Z,97362.33
2019-05-09T18:51:43.987Z,97363.35
2019-05-09T18:54:11.314Z,97365.27
2019-05-09T18:56:38.310Z,97366.83
2019-05-09T18:59:05.425Z,97372.81
2019-05-09T19:01:32.718Z,97375.27
2019-05-09T19:04:00.819Z,97382.42
2019-05-09T19:06:28.018Z,97384.56
2019-05-09T19:08:55.078Z,97387.06
2019-05-09T19:11:22.503Z,97372.64
2019-05-09T19:13:49.510Z,97386.84
2019-05-09T19:16:27.957Z,97393.53
2019-05-09T19:19:09.388Z,97394.39
2019-05-09T19:21:56.051Z,97400.05
2019-05-09T19:24:23.054Z,97399.25
2019-05-09T19:26:50.725Z,97412.55
2019-05-09T19:29:17.720Z,97417.91
2019-05-09T19:31:44.718Z,97413.80
2019-05-09T19:34:11.853Z,97423.16
2019-05-09T19:36:39.278Z,97427.10
2019-05-09T19:39:08.574Z,97426.98
2019-05-09T19:41:36.891Z,97423.48
2019-05-09T19:44:04.640Z,97440.48
2019-05-09T19:46:31.916Z,97446.00
2019-05-09T19:48:59.068Z,97444.74
2019-05-09T19:51:26.162Z,97444.02
2019-05-09T19:53:53.207Z,97455.50
2019-05-09T19:56:22.016Z,97452.69
2019-05-09T19:58:49.335Z,97457.97
2019-05-09T20:01:16.491Z,97457.35
2019-05-09T20:03:44.116Z,97464.53
2019-05-09T20:06:11.423Z,97465.25
2019-05-09T20:08:38.832Z,97473.20
2019-05-09T20:11:35.544Z,97473.13
2019-05-09T20:14:21.240Z,97472.45
2019-05-09T20:16:50.434Z,97476.47
2019-05-09T20:19:17.891Z,97480.90
2019-05-09T20:21:46.024Z,97484.60
2019-05-09T20:24:15.135Z,97483.73
2019-05-09T20:26:43.067Z,97484.78
2019-05-09T20:29:10.943Z,97490.77
2019-05-09T20:31:39.124Z,97489.81
2019-05-09T20:34:06.267Z,97496.28
2019-05-09T20:36:33.597Z,97494.37
2019-05-09T20:39:00.692Z,97502.09
2019-05-09T20:41:28.128Z,97510.70
2019-05-09T20:43:55.792Z,97504.95
2019-05-09T20:46:23.124Z,97514.41
2019-05-09T20:48:50.242Z,97505.03
2019-05-09T20:51:17.587Z,97504.64
2019-05-09T20:53:45.239Z,97510.52
2019-05-09T20:56:12.597Z,97505.39
2019-05-09T20:58:40.364Z,97509.88
2019-05-09T21:01:07.752Z,97512.09
2019-05-09T21:03:35.018Z,97521.92
2019-05-09T21:06:02.444Z,97528.00
2019-05-09T21:08:29.632Z,97530.47
2019-05-09T21:10:57.062Z,97533.56
2019-05-09T21:13:24.551Z,97538.22
2019-05-09T21:15:51.735Z,97542.33
2019-05-09T21:18:19.795Z,97538.14
2019-05-09T21:20:47.875Z,97537.91
2019-05-09T21:23:24.387Z,97538.79
2019-05-09T21:25:44.840Z,97547.28
2019-05-09T21:28:11.866Z,97548.23
2019-05-09T21:30:39.181Z,97553.85
2019-05-09T21:33:06.305Z,97566.22
2019-05-09T21:35:33.764Z,97560.06
2019-05-09T21:38:00.903Z,97557.55
2019-05-09T21:40:28.253Z,97571.25
2019-05-09T21:42:55.519Z,97568.27
2019-05-09T21:45:22.572Z,97572.02
2019-05-09T21:47:49.849Z,97577.13
2019-05-09T21:50:16.904Z,97577.13
2019-05-09T21:52:44.293Z,97584.59
2019-05-09T21:55:11.319Z,97581.68
2019-05-09T21:57:39.303Z,97584.13
2019-05-09T22:00:09.599Z,97579.31
2019-05-09T22:02:36.678Z,97586.93
2019-05-09T22:05:04.906Z,97590.58
2019-05-09T22:07:32.044Z,97596.09
2019-05-09T22:10:00.072Z,97599.99
2019-05-09T22:12:27.707Z,97603.05
2019-05-09T22:14:54.785Z,97612.31
2019-05-09T22:17:31.556Z,97613.16
2019-05-09T22:19:59.577Z,97616.58
2019-05-09T22:22:26.902Z,97623.05
2019-05-09T22:24:54.086Z,97618.41
2019-05-09T22:27:21.442Z,97617.07
2019-05-09T22:29:48.534Z,97618.78
2019-05-09T22:32:16.205Z,97617.52
2019-05-09T22:34:43.337Z,97619.39
2019-05-09T22:37:11.009Z,97625.66
2019-05-09T22:39:38.387Z,97623.05
2019-05-09T22:42:05.703Z,97629.51
2019-05-09T22:44:32.865Z,97630.34
2019-05-09T22:47:00.123Z,97634.97
2019-05-09T22:49:27.250Z,97640.69
2019-05-09T22:51:54.519Z,97637.52
2019-05-09T22:54:22.003Z,97635.67
2019-05-09T22:56:49.026Z,97634.07
2019-05-09T22:59:16.421Z,97630.92
2019-05-09T23:01:43.455Z,97635.24
2019-05-09T23:04:10.575Z,97636.28
2019-05-09T23:06:37.634Z,97634.44
2019-05-09T23:09:05.622Z,97636.65
2019-05-09T23:11:32.649Z,97650.06
2019-05-09T23:14:00.715Z,97645.02
2019-05-09T23:16:32.331Z,97628.13
2019-05-09T23:19:02.379Z,97646.11
2019-05-09T23:21:32.626Z,97652.70
2019-05-09T23:24:07.850Z,97650.49
2019-05-09T23:26:37.421Z,97650.49
2019-05-09T23:29:08.768Z,97638.69
2019-05-09T23:31:46.775Z,97650.26
2019-05-09T23:34:15.120Z,97656.95
2019-05-09T23:36:43.167Z,97656.95
2019-05-09T23:40:35.312Z,97659.86
2019-05-09T23:43:05.840Z,97658.65
2019-05-09T23:45:33.855Z,97660.69
2019-05-09T23:48:03.810Z,97663.13
2019-05-09T23:50:32.370Z,97641.42
2019-05-09T23:52:59.979Z,97658.02
2019-05-09T23:55:47.684Z,97662.59
2019-05-09T23:58:35.620Z,97646.20
